UAL259 KDEN-KMCO
Flight info
| Callsign | UAL259 |
|---|---|
| Flight time | N/A |
| Altitude | 37000 |
| Route | EPKEE7 DUUZE ICT MUDHO Q128 JILLS DEEDA GRNCH5 |
| Aircraft | A21N/M-VGDW/C |
Departure
| Time | 2026-05-08 01:27 |
|---|---|
| Airport | Denver International Airport (KDEN) |
Arrival
| Time | N/A |
|---|---|
| Airport | Orlando International Airport (KMCO) |
| Time | Latitude | Longitude | Altitude | Speed | Heading |
|---|---|---|---|---|---|
| 2026-05-08 00:59 | 39.85802 | -104.67627 | 5381 ft | 0 kts | 359° |
| 2026-05-08 01:16 | 39.85801 | -104.67627 | 5381 ft | 1 kts | 360° |
| 2026-05-08 01:16 | 39.85787 | -104.67627 | 5381 ft | 2 kts | 359° |
| 2026-05-08 01:17 | 39.85772 | -104.67627 | 5381 ft | 2 kts | 360° |
| 2026-05-08 01:17 | 39.85757 | -104.67627 | 5381 ft | 2 kts | 359° |
| 2026-05-08 01:17 | 39.85742 | -104.67626 | 5381 ft | 2 kts | 359° |
| 2026-05-08 01:17 | 39.85727 | -104.67626 | 5381 ft | 2 kts | 359° |
| 2026-05-08 01:18 | 39.85715 | -104.67626 | 5381 ft | 0 kts | 359° |
| 2026-05-08 01:21 | 39.85716 | -104.67626 | 5381 ft | 0 kts | 357° |
| 2026-05-08 01:22 | 39.85730 | -104.67647 | 5381 ft | 5 kts | 284° |
| 2026-05-08 01:22 | 39.85726 | -104.67721 | 5381 ft | 10 kts | 267° |
| 2026-05-08 01:22 | 39.85731 | -104.67843 | 5381 ft | 15 kts | 274° |
| 2026-05-08 01:22 | 39.85735 | -104.67965 | 5381 ft | 15 kts | 269° |
| 2026-05-08 01:23 | 39.85731 | -104.68076 | 5381 ft | 15 kts | 259° |
| 2026-05-08 01:23 | 39.85697 | -104.68210 | 5379 ft | 16 kts | 251° |
| 2026-05-08 01:23 | 39.85688 | -104.68364 | 5375 ft | 18 kts | 274° |
| 2026-05-08 01:23 | 39.85695 | -104.68483 | 5375 ft | 10 kts | 294° |
| 2026-05-08 01:24 | 39.85765 | -104.68515 | 5375 ft | 13 kts | 1° |
| 2026-05-08 01:24 | 39.85885 | -104.68513 | 5375 ft | 20 kts | 360° |
| 2026-05-08 01:24 | 39.86027 | -104.68514 | 5375 ft | 19 kts | 359° |
| 2026-05-08 01:24 | 39.86163 | -104.68510 | 5375 ft | 19 kts | 1° |
| 2026-05-08 01:25 | 39.86296 | -104.68507 | 5374 ft | 18 kts | 0° |
| 2026-05-08 01:25 | 39.86394 | -104.68507 | 5373 ft | 11 kts | 349° |
| 2026-05-08 01:25 | 39.86427 | -104.68600 | 5369 ft | 14 kts | 269° |
| 2026-05-08 01:25 | 39.86426 | -104.68697 | 5365 ft | 6 kts | 276° |
| 2026-05-08 01:26 | 39.86465 | -104.68716 | 5365 ft | 8 kts | 358° |
| 2026-05-08 01:26 | 39.86691 | -104.68715 | 5365 ft | 67 kts | 0° |
| 2026-05-08 01:26 | 39.87394 | -104.68707 | 5365 ft | 131 kts | 359° |
| 2026-05-08 01:26 | 39.88483 | -104.68697 | 5389 ft | 179 kts | 358° |
| 2026-05-08 01:27 | 39.89747 | -104.68681 | 5996 ft | 178 kts | 358° |
| 2026-05-08 01:27 | 39.90978 | -104.68410 | 6596 ft | 186 kts | 31° |
| 2026-05-08 01:27 | 39.91660 | -104.67013 | 7155 ft | 193 kts | 83° |
| 2026-05-08 01:27 | 39.91353 | -104.65259 | 7375 ft | 213 kts | 114° |
| 2026-05-08 01:28 | 39.90696 | -104.63461 | 7729 ft | 225 kts | 115° |
| 2026-05-08 01:28 | 39.90002 | -104.61652 | 8103 ft | 236 kts | 116° |
| 2026-05-08 01:28 | 39.89650 | -104.60772 | 8297 ft | 240 kts | 117° |